地図

経路データ

SID SEASON NUMBER BASIN SUBBASIN NAME ISO_TIME NATURE LAT LON WMO_WIND WMO_PRES WMO_AGENCY TRACK_TYPE DIST2LAND LANDFALL IFLAG USA_AGENCY USA_ATCF_ID USA_LAT USA_LON USA_RECORD USA_STATUS USA_WIND USA_PRES USA_SSHS USA_R34_NE USA_R34_SE USA_R34_SW USA_R34_NW USA_R50_NE USA_R50_SE USA_R50_SW USA_R50_NW USA_R64_NE USA_R64_SE USA_R64_SW USA_R64_NW USA_POCI USA_ROCI USA_RMW USA_EYE TOKYO_LAT TOKYO_LON TOKYO_GRADE TOKYO_WIND TOKYO_PRES TOKYO_R50_DIR TOKYO_R50_LONG TOKYO_R50_SHORT TOKYO_R30_DIR TOKYO_R30_LONG TOKYO_R30_SHORT TOKYO_LAND CMA_LAT CMA_LON CMA_CAT CMA_WIND CMA_PRES HKO_LAT HKO_LON HKO_CAT HKO_WIND HKO_PRES NEWDELHI_LAT NEWDELHI_LON NEWDELHI_GRADE NEWDELHI_WIND NEWDELHI_PRES NEWDELHI_CI NEWDELHI_DP NEWDELHI_POCI REUNION_LAT REUNION_LON REUNION_TYPE REUNION_WIND REUNION_PRES REUNION_TNUM REUNION_CI REUNION_RMW REUNION_R34_NE REUNION_R34_SE REUNION_R34_SW REUNION_R34_NW REUNION_R50_NE REUNION_R50_SE REUNION_R50_SW REUNION_R50_NW REUNION_R64_NE REUNION_R64_SE REUNION_R64_SW REUNION_R64_NW BOM_LAT BOM_LON BOM_TYPE BOM_WIND BOM_PRES BOM_TNUM BOM_CI BOM_RMW BOM_R34_NE BOM_R34_SE BOM_R34_SW BOM_R34_NW BOM_R50_NE BOM_R50_SE BOM_R50_SW BOM_R50_NW BOM_R64_NE BOM_R64_SE BOM_R64_SW BOM_R64_NW BOM_ROCI BOM_POCI BOM_EYE BOM_POS_METHOD BOM_PRES_METHOD NADI_LAT NADI_LON NADI_CAT NADI_WIND NADI_PRES WELLINGTON_LAT WELLINGTON_LON WELLINGTON_WIND WELLINGTON_PRES DS824_LAT DS824_LON DS824_STAGE DS824_WIND DS824_PRES TD9636_LAT TD9636_LON TD9636_STAGE TD9636_WIND TD9636_PRES TD9635_LAT TD9635_LON TD9635_WIND TD9635_PRES TD9635_ROCI NEUMANN_LAT NEUMANN_LON NEUMANN_CLASS NEUMANN_WIND NEUMANN_PRES MLC_LAT MLC_LON MLC_CLASS MLC_WIND MLC_PRES USA_GUST BOM_GUST BOM_GUST_PER REUNION_GUST REUNION_GUST_PER USA_SEAHGT USA_SEARAD_NE USA_SEARAD_SE USA_SEARAD_SW USA_SEARAD_NW STORM_SPEED STORM_DIR
1987257N14306 1987 76 NA NA NOT_NAMED 1987-09-13 12:00:00 TS 14.0000 -54.0000 25 hurdat_atl main 845 827 O_____________ hurdat_atl AL111987 14.0000 -54.0000 TD 25 -1 11 315
1987257N14306 1987 76 NA NA NOT_NAMED 1987-09-13 15:00:00 TS 14.3952 -54.4071 main 827 808 P_____________ AL111987 14.3952 -54.4071 TD 25 -1 10 312
1987257N14306 1987 76 NA NA NOT_NAMED 1987-09-13 18:00:00 TS 14.7000 -54.8000 25 hurdat_atl main 808 787 O_____________ hurdat_atl AL111987 14.7000 -54.8000 TD 25 -1 9 303
1987257N14306 1987 76 NA NA NOT_NAMED 1987-09-13 21:00:00 TS 14.8649 -55.1653 main 785 766 P_____________ AL111987 14.8649 -55.1653 TD 27 -1 7 294
1987257N14306 1987 76 NA NA NOT_NAMED 1987-09-14 00:00:00 TS 15.0000 -55.5000 30 hurdat_atl main 766 756 O_____________ hurdat_atl AL111987 15.0000 -55.5000 TD 30 -1 7 302
1987257N14306 1987 76 NA NA NOT_NAMED 1987-09-14 03:00:00 TS 15.2348 -55.7851 main 756 755 P_____________ AL111987 15.2348 -55.7851 TD 30 -1 8 311
1987257N14306 1987 76 NA NA NOT_NAMED 1987-09-14 06:00:00 TS 15.5000 -56.1000 30 hurdat_atl main 755 742 O_____________ hurdat_atl AL111987 15.5000 -56.1000 TD 30 -1 9 305
1987257N14306 1987 76 NA NA NOT_NAMED 1987-09-14 09:00:00 TS 15.7501 -56.5350 main 750 732 P_____________ AL111987 15.7501 -56.5350 TD 30 -1 10 300
1987257N14306 1987 76 NA NA NOT_NAMED 1987-09-14 12:00:00 TS 16.0000 -57.0000 30 hurdat_atl main 734 728 O_____________ hurdat_atl AL111987 16.0000 -57.0000 TD 30 -1 10 301
1987257N14306 1987 76 NA NA NOT_NAMED 1987-09-14 15:00:00 TS 16.2499 -57.4151 main 728 726 P_____________ AL111987 16.2499 -57.4151 TD 30 -1 9 303
1987257N14306 1987 76 NA NA NOT_NAMED 1987-09-14 18:00:00 TS 16.5000 -57.8000 30 hurdat_atl main 735 730 O_____________ hurdat_atl AL111987 16.5000 -57.8000 TD 30 -1 9 305
1987257N14306 1987 76 NA NA NOT_NAMED 1987-09-14 21:00:00 TS 16.7499 -58.1576 main 736 736 P_____________ AL111987 16.7499 -58.1576 TD 30 -1 8 307
1987257N14306 1987 76 NA NA NOT_NAMED 1987-09-15 00:00:00 TS 17.0000 -58.5000 30 hurdat_atl main 755 729 O_____________ hurdat_atl AL111987 17.0000 -58.5000 TD 30 -1 8 307
1987257N14306 1987 76 NA NA NOT_NAMED 1987-09-15 03:00:00 TS 17.2499 -58.8426 main 729 681 P_____________ AL111987 17.2499 -58.8426 TD 30 -1 8 307
1987257N14306 1987 76 NA NA NOT_NAMED 1987-09-15 06:00:00 TS 17.5000 -59.2000 30 hurdat_atl main 681 637 O_____________ hurdat_atl AL111987 17.5000 -59.2000 TD 30 -1 9 305
1987257N14306 1987 76 NA NA NOT_NAMED 1987-09-15 09:00:00 TS 17.7500 -59.5926 main 637 592 P_____________ AL111987 17.7500 -59.5926 TD 30 -1 9 303
1987257N14306 1987 76 NA NA NOT_NAMED 1987-09-15 12:00:00 TS 18.0000 -60.0000 30 hurdat_atl main 592 549 O_____________ hurdat_atl AL111987 18.0000 -60.0000 TD 30 -1 9 304
1987257N14306 1987 76 NA NA NOT_NAMED 1987-09-15 15:00:00 TS 18.2498 -60.3852 main 549 506 P_____________ AL111987 18.2498 -60.3852 TD 27 -1 9 303
1987257N14306 1987 76 NA NA NOT_NAMED 1987-09-15 18:00:00 TS 18.5000 -60.8000 25 hurdat_atl main 506 454 O_____________ hurdat_atl AL111987 18.5000 -60.8000 TD 25 -1 10 300
1987257N14306 1987 76 NA NA NOT_NAMED 1987-09-15 21:00:00 TS 18.7500 -61.2925 main 455 405 P_____________ AL111987 18.7500 -61.2925 TD 25 -1 11 298
1987257N14306 1987 76 NA NA NOT_NAMED 1987-09-16 00:00:00 TS 19.0000 -61.8000 25 hurdat_atl main 405 368 O_____________ hurdat_atl AL111987 19.0000 -61.8000 TD 25 -1 10 299
1987257N14306 1987 76 NA NA NOT_NAMED 1987-09-16 03:00:00 TS 19.2499 -62.2651 main 358 328 P_____________ AL111987 19.2499 -62.2651 TD 25 -1 10 300
1987257N14306 1987 76 NA NA NOT_NAMED 1987-09-16 06:00:00 TS 19.5000 -62.7000 25 hurdat_atl main 328 300 O_____________ hurdat_atl AL111987 19.5000 -62.7000 TD 25 -1 10 301
1987257N14306 1987 76 NA NA NOT_NAMED 1987-09-16 09:00:00 TS 19.7500 -63.1375 main 305 284 P_____________ AL111987 19.7500 -63.1375 TD 25 -1 9 304
1987257N14306 1987 76 NA NA NOT_NAMED 1987-09-16 12:00:00 TS 20.0000 -63.5000 25 hurdat_atl main 284 275 O_____________ hurdat_atl AL111987 20.0000 -63.5000 TD 25 -1 8 311
1987257N14306 1987 76 NA NA NOT_NAMED 1987-09-16 15:00:00 TS 20.2499 -63.7526 main 276 276 P_____________ AL111987 20.2499 -63.7526 TD 22 -1 6 323
1987257N14306 1987 76 NA NA NOT_NAMED 1987-09-16 18:00:00 TS 20.5000 -63.9000 20 hurdat_atl main 294 294 O_____________ hurdat_atl AL111987 20.5000 -63.9000 TD 20 -1 5 337
1987257N14306 1987 76 NA NA NOT_NAMED 1987-09-16 21:00:00 TS 20.7500 -63.9801 main 307 307 P_____________ AL111987 20.7500 -63.9801 TD 20 -1 5 349
1987257N14306 1987 76 NA NA NOT_NAMED 1987-09-17 00:00:00 TS 21.0000 -64.0000 20 hurdat_atl main 335 335 O_____________ hurdat_atl AL111987 21.0000 -64.0000 TD 20 -1 5 358
1987257N14306 1987 76 NA NA NOT_NAMED 1987-09-17 03:00:00 TS 21.2500 -64.0075 main 364 355 P_____________ AL111987 21.2500 -64.0075 TD 20 -1 5 2
1987257N14306 1987 76 NA NA NOT_NAMED 1987-09-17 06:00:00 TS 21.5000 -64.0000 20 hurdat_atl main 384 384 O_____________ hurdat_atl AL111987 21.5000 -64.0000 TD 20 -1 5 2
1987257N14306 1987 76 NA NA NOT_NAMED 1987-09-17 09:00:00 TS 21.7500 -63.9975 main 415 405 P_____________ AL111987 21.7500 -63.9975 TD 17 -1 5 2
1987257N14306 1987 76 NA NA NOT_NAMED 1987-09-17 12:00:00 TS 22.0000 -64.0000 15 hurdat_atl main 435 O_____________ hurdat_atl AL111987 22.0000 -64.0000 TD 15 -1 5 358

IBTrACS Databaseについて

本データベースは、米国NOAAが公開する1842年以降の世界の熱帯低気圧のベストトラックデータアーカイブInternational Best Track Archive for Climate Stewardship (IBTrACS)を、ウェブで閲覧しやすい形式に変換したものです。

最終更新日:2021-10-27